createdAt,value
2023-04-04T00:01:49.536Z,6.10
2023-04-04T00:04:17.640Z,6.00
2023-04-04T00:06:45.906Z,6.00
2023-04-04T00:09:13.067Z,6.00
2023-04-04T00:11:41.092Z,5.90
2023-04-04T00:14:08.221Z,5.90
2023-04-04T00:16:35.366Z,5.90
2023-04-04T00:19:02.585Z,5.90
2023-04-04T00:21:30.639Z,5.90
2023-04-04T00:23:57.906Z,5.90
2023-04-04T00:26:24.753Z,5.90
2023-04-04T00:28:51.628Z,5.90
2023-04-04T00:31:18.616Z,5.80
2023-04-04T00:33:45.518Z,5.70
2023-04-04T00:36:12.499Z,5.70
2023-04-04T00:38:39.383Z,5.70
2023-04-04T00:41:08.935Z,5.60
2023-04-04T00:43:35.859Z,5.60
2023-04-04T00:46:02.822Z,5.70
2023-04-04T00:48:29.892Z,5.80
2023-04-04T00:50:57.099Z,5.80
2023-04-04T00:53:23.897Z,5.90
2023-04-04T00:55:50.771Z,5.90
2023-04-04T00:58:17.593Z,5.90
2023-04-04T01:00:44.438Z,5.80
2023-04-04T01:03:12.905Z,5.80
2023-04-04T01:05:40.257Z,5.80
2023-04-04T01:08:07.167Z,5.80
2023-04-04T01:10:34.471Z,5.80
2023-04-04T01:13:01.938Z,5.80
2023-04-04T01:15:28.852Z,5.80
2023-04-04T01:17:57.317Z,5.80
2023-04-04T01:20:26.520Z,5.80
2023-04-04T01:22:54.751Z,5.80
2023-04-04T01:25:27.136Z,5.80
2023-04-04T01:27:54.776Z,5.70
2023-04-04T01:30:21.896Z,5.70
2023-04-04T01:32:51.791Z,5.70
2023-04-04T01:35:28.035Z,5.70
2023-04-04T01:38:00.327Z,5.60
2023-04-04T01:40:35.092Z,5.70
2023-04-04T01:43:02.528Z,5.70
2023-04-04T01:45:33.061Z,5.60
2023-04-04T01:47:59.911Z,5.60
2023-04-04T01:50:27.328Z,5.50
2023-04-04T01:52:54.274Z,5.60
2023-04-04T01:55:21.942Z,5.50
2023-04-04T01:57:48.732Z,5.50
2023-04-04T02:00:16.644Z,5.50
2023-04-04T02:02:43.645Z,5.40
2023-04-04T02:05:10.537Z,5.40
2023-04-04T02:07:37.340Z,5.40
2023-04-04T02:10:04.555Z,5.40
2023-04-04T02:12:31.417Z,5.30
2023-04-04T02:14:58.218Z,5.30
2023-04-04T02:17:28.575Z,5.30
2023-04-04T02:19:55.496Z,5.30
2023-04-04T02:22:22.417Z,5.30
2023-04-04T02:24:49.278Z,5.30
2023-04-04T02:27:16.238Z,5.30
2023-04-04T02:29:43.046Z,5.30
2023-04-04T02:32:09.930Z,5.30
2023-04-04T02:34:36.730Z,5.30
2023-04-04T02:37:04.033Z,5.20
2023-04-04T02:39:30.876Z,5.20
2023-04-04T02:41:57.667Z,5.10
2023-04-04T02:44:24.477Z,5.10
2023-04-04T02:46:51.353Z,5.10
2023-04-04T02:49:18.473Z,5.00
2023-04-04T02:51:45.449Z,5.00
2023-04-04T02:54:12.900Z,5.00
2023-04-04T02:56:39.711Z,5.00
2023-04-04T02:59:06.636Z,5.00
2023-04-04T03:01:33.689Z,5.00
2023-04-04T03:04:00.728Z,4.90
2023-04-04T03:06:31.392Z,4.80
2023-04-04T03:08:58.204Z,4.80
2023-04-04T03:11:24.996Z,4.80
2023-04-04T03:13:52.214Z,4.70
2023-04-04T03:16:20.271Z,4.70
2023-04-04T03:18:47.228Z,4.60
2023-04-04T03:21:14.178Z,4.60
2023-04-04T03:23:42.952Z,4.50
2023-04-04T03:26:09.749Z,4.50
2023-04-04T03:28:36.636Z,4.40
2023-04-04T03:31:04.357Z,4.40
2023-04-04T03:33:31.257Z,4.30
2023-04-04T03:35:58.070Z,4.40
2023-04-04T03:38:24.917Z,4.30
2023-04-04T03:41:01.337Z,4.20
2023-04-04T03:43:28.519Z,4.20
2023-04-04T03:45:55.362Z,4.10
2023-04-04T03:48:22.360Z,4.20
2023-04-04T03:50:49.226Z,4.10
2023-04-04T03:53:16.736Z,4.10
2023-04-04T03:55:43.596Z,4.10
2023-04-04T03:58:10.538Z,4.00
2023-04-04T04:00:37.354Z,4.00
2023-04-04T04:03:04.304Z,4.00
2023-04-04T04:05:31.246Z,4.00
2023-04-04T04:07:58.038Z,3.90
2023-04-04T04:10:24.827Z,3.90
2023-04-04T04:12:52.001Z,3.90
2023-04-04T04:15:18.894Z,3.80
2023-04-04T04:17:45.732Z,3.80
2023-04-04T04:20:12.679Z,3.80
2023-04-04T04:22:45.425Z,3.70
2023-04-04T04:25:12.210Z,3.70
2023-04-04T04:27:39.037Z,3.60
2023-04-04T04:30:06.381Z,3.60
2023-04-04T04:32:33.156Z,3.60
2023-04-04T04:34:59.983Z,3.60
2023-04-04T04:37:27.209Z,3.50
2023-04-04T04:39:54.031Z,3.50
2023-04-04T04:42:21.523Z,3.50
2023-04-04T04:44:48.332Z,3.50
2023-04-04T04:47:15.113Z,3.40
2023-04-04T04:49:43.631Z,3.40
2023-04-04T04:52:10.418Z,3.40
2023-04-04T04:54:37.259Z,3.30
2023-04-04T04:57:04.153Z,3.20
2023-04-04T04:59:31.085Z,3.10
2023-04-04T05:01:58.017Z,3.10
2023-04-04T05:04:25.008Z,3.10
2023-04-04T05:06:51.774Z,3.00
2023-04-04T05:09:18.547Z,3.00
2023-04-04T05:11:45.388Z,2.90
2023-04-04T05:14:12.193Z,2.90
2023-04-04T05:16:39.090Z,2.90
2023-04-04T05:19:06.145Z,2.90
2023-04-04T05:21:33.175Z,2.90
2023-04-04T05:24:00.033Z,2.90
2023-04-04T05:26:26.963Z,2.90
2023-04-04T05:28:54.198Z,2.90
2023-04-04T05:31:21.488Z,2.90
2023-04-04T05:33:48.460Z,2.90
2023-04-04T05:36:16.243Z,2.90
2023-04-04T05:38:43.445Z,2.90
2023-04-04T05:41:10.802Z,3.00
2023-04-04T05:43:37.620Z,3.00
2023-04-04T05:46:04.534Z,2.90
2023-04-04T05:48:31.431Z,2.90
2023-04-04T05:50:58.199Z,3.00
2023-04-04T05:53:25.175Z,3.00
2023-04-04T05:55:55.120Z,3.00
2023-04-04T05:58:22.076Z,3.00
2023-04-04T06:00:48.896Z,3.10
2023-04-04T06:03:17.097Z,3.20
2023-04-04T06:05:50.198Z,3.20
2023-04-04T06:08:17.047Z,3.30
2023-04-04T06:10:43.949Z,3.40
2023-04-04T06:13:11.135Z,3.50
2023-04-04T06:15:37.925Z,3.70
2023-04-04T06:18:04.758Z,3.80
2023-04-04T06:20:31.674Z,3.90
2023-04-04T06:22:58.519Z,4.00
2023-04-04T06:25:26.961Z,4.20
2023-04-04T06:27:53.768Z,4.30
2023-04-04T06:30:20.833Z,4.50
2023-04-04T06:32:47.685Z,4.60
2023-04-04T06:35:14.619Z,4.70
2023-04-04T06:37:41.383Z,4.80
2023-04-04T06:40:08.667Z,4.90
2023-04-04T06:42:35.471Z,5.00
2023-04-04T06:45:02.265Z,5.10
2023-04-04T06:47:29.208Z,5.30
2023-04-04T06:49:56.035Z,5.40
2023-04-04T06:52:23.537Z,5.60
2023-04-04T06:54:50.469Z,5.80
2023-04-04T06:57:18.391Z,5.90
2023-04-04T06:59:45.437Z,6.00
2023-04-04T07:02:12.336Z,6.20
2023-04-04T07:04:39.891Z,6.30
2023-04-04T07:07:06.748Z,6.40
2023-04-04T07:09:33.616Z,6.50
2023-04-04T07:12:00.530Z,6.50
2023-04-04T07:14:27.354Z,6.60
2023-04-04T07:16:55.217Z,6.60
2023-04-04T07:19:28.672Z,6.60
2023-04-04T07:21:55.847Z,6.70
2023-04-04T07:24:22.678Z,6.80
2023-04-04T07:26:49.506Z,7.00
2023-04-04T07:29:16.586Z,7.00
2023-04-04T07:31:43.680Z,7.20
2023-04-04T07:34:10.454Z,7.30
2023-04-04T07:36:37.369Z,7.40
2023-04-04T07:39:04.921Z,7.50
2023-04-04T07:41:31.856Z,7.60
2023-04-04T07:43:58.831Z,7.80
2023-04-04T07:46:27.673Z,7.90
2023-04-04T07:48:54.477Z,8.00
2023-04-04T07:51:28.342Z,8.10
2023-04-04T07:53:55.739Z,8.10
2023-04-04T07:56:22.818Z,8.10
2023-04-04T07:58:49.644Z,8.00
2023-04-04T08:01:16.593Z,8.00
2023-04-04T08:03:43.523Z,8.00
2023-04-04T08:06:11.188Z,8.00
2023-04-04T08:08:38.029Z,7.70
2023-04-04T08:11:04.807Z,7.60
2023-04-04T08:13:31.649Z,7.60
2023-04-04T08:15:58.746Z,7.70
2023-04-04T08:18:26.001Z,7.60
2023-04-04T08:20:52.825Z,7.70
2023-04-04T08:23:20.006Z,7.70
2023-04-04T08:25:47.120Z,7.70
2023-04-04T08:28:13.980Z,7.80
2023-04-04T08:30:41.376Z,7.80
2023-04-04T08:33:09.414Z,8.00
2023-04-04T08:35:37.066Z,8.00
2023-04-04T08:38:06.379Z,8.00
2023-04-04T08:40:34.385Z,8.10
2023-04-04T08:43:01.962Z,8.10
2023-04-04T08:45:30.872Z,8.20
2023-04-04T08:47:59.246Z,8.30
2023-04-04T08:50:27.138Z,8.40
2023-04-04T08:52:54.726Z,8.50
2023-04-04T08:55:21.647Z,8.80
2023-04-04T08:57:49.315Z,9.20
2023-04-04T09:00:18.552Z,9.50
2023-04-04T09:02:52.475Z,9.70
2023-04-04T09:05:20.130Z,10.00
2023-04-04T09:07:47.546Z,10.00
2023-04-04T09:10:14.323Z,10.60
2023-04-04T09:12:42.738Z,10.60
2023-04-04T09:15:09.985Z,11.00
2023-04-04T09:17:37.744Z,10.90
2023-04-04T09:20:24.493Z,10.50
2023-04-04T09:22:51.605Z,11.10
2023-04-04T09:25:19.342Z,11.20
2023-04-04T09:27:47.426Z,10.70
2023-04-04T09:30:14.250Z,10.70
2023-04-04T09:32:41.560Z,10.80
2023-04-04T09:35:09.112Z,11.00
2023-04-04T09:37:35.918Z,11.10
2023-04-04T09:40:04.364Z,10.80
2023-04-04T09:42:31.856Z,10.60
2023-04-04T09:44:59.022Z,10.60
2023-04-04T09:47:31.411Z,10.60
2023-04-04T09:50:01.764Z,10.70
2023-04-04T09:52:31.700Z,11.00
2023-04-04T09:54:59.426Z,11.00
2023-04-04T09:57:29.920Z,11.40
2023-04-04T10:00:01.158Z,11.40
2023-04-04T10:02:30.326Z,11.60
2023-04-04T10:05:06.152Z,12.10
2023-04-04T10:07:33.896Z,12.50
2023-04-04T10:10:07.226Z,12.60
2023-04-04T10:12:33.971Z,12.40
2023-04-04T10:15:01.325Z,12.60
2023-04-04T10:17:38.673Z,12.40
2023-04-04T10:20:06.691Z,12.20
2023-04-04T10:22:33.968Z,12.20
2023-04-04T10:25:00.755Z,12.20
2023-04-04T10:27:28.107Z,12.10
2023-04-04T10:29:54.962Z,11.80
2023-04-04T10:32:30.240Z,11.70
2023-04-04T10:35:01.324Z,11.80
2023-04-04T10:37:28.406Z,11.70
2023-04-04T10:39:58.305Z,11.50
2023-04-04T10:42:26.285Z,11.80
2023-04-04T10:44:54.087Z,12.10
2023-04-04T10:47:22.148Z,12.20
2023-04-04T10:49:49.679Z,12.10
2023-04-04T10:52:20.395Z,12.30
2023-04-04T10:54:47.963Z,12.20
2023-04-04T10:57:14.994Z,12.40
2023-04-04T10:59:58.053Z,12.30
2023-04-04T11:02:46.063Z,11.90
2023-04-04T11:05:18.982Z,12.00
2023-04-04T11:07:57.216Z,12.20
2023-04-04T11:10:32.345Z,12.30
2023-04-04T11:13:12.766Z,12.00
2023-04-04T11:15:59.989Z,11.90
2023-04-04T11:18:34.269Z,11.80
2023-04-04T11:21:01.956Z,11.70
2023-04-04T11:23:38.694Z,12.00
2023-04-04T11:26:07.438Z,12.10
2023-04-04T11:28:34.189Z,12.00
2023-04-04T11:31:19.777Z,11.20
2023-04-04T11:33:55.853Z,11.40
2023-04-04T11:36:38.115Z,11.70
2023-04-04T11:39:23.799Z,12.30
2023-04-04T11:42:08.408Z,12.80
2023-04-04T11:44:43.079Z,13.00
2023-04-04T11:47:10.934Z,12.80
2023-04-04T11:49:47.161Z,12.50
2023-04-04T11:52:15.437Z,12.80
2023-04-04T11:54:43.697Z,12.90
2023-04-04T11:57:14.031Z,12.50
2023-04-04T11:59:45.677Z,12.20
2023-04-04T12:02:13.170Z,12.00
2023-04-04T12:04:43.404Z,12.40
2023-04-04T12:07:11.228Z,12.60
2023-04-04T12:09:38.558Z,12.60
2023-04-04T12:12:07.667Z,12.90
2023-04-04T12:14:34.493Z,13.10
2023-04-04T12:17:02.800Z,13.10
2023-04-04T12:19:29.910Z,13.30
2023-04-04T12:21:57.687Z,13.50
2023-04-04T12:24:25.299Z,14.00
2023-04-04T12:26:53.168Z,13.90
2023-04-04T12:29:21.359Z,14.00
2023-04-04T12:31:48.994Z,13.60
2023-04-04T12:34:19.304Z,13.70
2023-04-04T12:36:49.868Z,13.80
2023-04-04T12:39:17.322Z,13.30
2023-04-04T12:41:57.244Z,12.90
2023-04-04T12:44:30.440Z,13.20
2023-04-04T12:47:00.229Z,13.80
2023-04-04T12:49:31.074Z,13.70
2023-04-04T12:52:00.868Z,13.60
2023-04-04T12:54:29.186Z,13.90
2023-04-04T12:56:59.693Z,13.80
2023-04-04T12:59:30.700Z,13.70
2023-04-04T13:01:57.730Z,13.30
2023-04-04T13:04:25.097Z,13.00
2023-04-04T13:06:52.055Z,13.30
2023-04-04T13:09:20.216Z,13.00
2023-04-04T13:12:03.211Z,13.20
2023-04-04T13:14:48.923Z,13.20
2023-04-04T13:17:15.800Z,12.70
2023-04-04T13:19:42.605Z,12.70
2023-04-04T13:22:09.649Z,12.80
2023-04-04T13:24:37.593Z,12.40
2023-04-04T13:27:06.508Z,12.20
2023-04-04T13:29:33.504Z,12.20
2023-04-04T13:34:28.889Z,12.00
2023-04-04T13:36:56.552Z,11.40
2023-04-04T13:39:23.813Z,11.10
2023-04-04T13:41:51.002Z,11.20
2023-04-04T13:44:18.005Z,11.00
2023-04-04T13:46:45.003Z,11.10
2023-04-04T13:49:11.883Z,11.20
2023-04-04T13:51:38.833Z,11.20
2023-04-04T13:54:05.995Z,11.00
2023-04-04T13:56:32.769Z,11.00
2023-04-04T13:58:59.664Z,11.00
2023-04-04T14:01:26.610Z,11.00
2023-04-04T14:03:53.426Z,11.00
2023-04-04T14:06:20.310Z,11.00
2023-04-04T14:08:47.513Z,10.80
2023-04-04T14:11:15.031Z,10.70
2023-04-04T14:13:42.024Z,10.70
2023-04-04T14:16:09.487Z,10.70
2023-04-04T14:18:36.507Z,10.90
2023-04-04T14:21:03.932Z,11.00
2023-04-04T14:23:31.370Z,11.20
2023-04-04T14:25:58.329Z,11.30
2023-04-04T14:28:25.534Z,11.20
2023-04-04T14:30:52.394Z,11.10
2023-04-04T14:33:19.270Z,11.30
2023-04-04T14:35:46.327Z,11.50
2023-04-04T14:38:13.154Z,11.50
2023-04-04T14:40:40.062Z,11.50
2023-04-04T14:43:07.836Z,11.60
2023-04-04T14:45:34.828Z,11.60
2023-04-04T14:48:02.260Z,11.60
2023-04-04T14:50:29.213Z,11.50
2023-04-04T14:52:56.717Z,11.50
2023-04-04T14:55:23.698Z,11.10
2023-04-04T15:00:21.190Z,10.90
2023-04-04T15:02:48.005Z,11.00
2023-04-04T15:05:15.831Z,10.90
2023-04-04T15:07:42.822Z,10.80
2023-04-04T15:10:09.717Z,10.70
2023-04-04T15:12:36.476Z,10.70
2023-04-04T15:15:03.429Z,10.70
2023-04-04T15:17:30.641Z,10.60
2023-04-04T15:19:58.015Z,10.80
2023-04-04T15:22:24.821Z,10.90
2023-04-04T15:24:51.955Z,10.80
2023-04-04T15:27:18.752Z,10.90
2023-04-04T15:29:45.584Z,10.90
2023-04-04T15:32:12.621Z,11.00
2023-04-04T15:34:40.026Z,10.80
2023-04-04T15:37:07.129Z,10.80
2023-04-04T15:39:39.674Z,10.70
2023-04-04T15:42:10.583Z,10.60
2023-04-04T15:44:37.488Z,10.70
2023-04-04T15:47:04.615Z,10.70
2023-04-04T15:49:33.803Z,10.50
2023-04-04T15:52:00.872Z,10.40
2023-04-04T15:54:29.072Z,10.40
2023-04-04T15:56:57.093Z,10.30
2023-04-04T15:59:23.971Z,10.30
2023-04-04T16:01:51.085Z,10.20
2023-04-04T16:04:18.000Z,10.30
2023-04-04T16:06:44.745Z,10.40
2023-04-04T16:09:11.530Z,10.40
2023-04-04T16:11:38.313Z,10.40
2023-04-04T16:14:06.056Z,10.50
2023-04-04T16:16:32.975Z,10.50
2023-04-04T16:18:59.776Z,10.50
2023-04-04T16:21:26.631Z,10.60
2023-04-04T16:23:53.664Z,10.50
2023-04-04T16:26:22.208Z,10.40
2023-04-04T16:28:49.142Z,10.40
2023-04-04T16:31:16.237Z,10.10
2023-04-04T16:33:44.097Z,10.20
2023-04-04T16:36:11.052Z,10.10
2023-04-04T16:38:37.882Z,10.20
2023-04-04T16:41:05.429Z,10.20
2023-04-04T16:43:32.434Z,10.10
2023-04-04T16:45:59.193Z,10.00
2023-04-04T16:48:26.034Z,9.90
2023-04-04T16:50:53.563Z,9.90
2023-04-04T16:53:20.466Z,9.90
2023-04-04T16:55:47.283Z,9.80
2023-04-04T16:58:14.063Z,9.70
2023-04-04T17:00:41.990Z,9.70
2023-04-04T17:03:09.365Z,9.70
2023-04-04T17:05:36.225Z,9.60
2023-04-04T17:08:03.039Z,9.70
2023-04-04T17:10:29.855Z,9.70
2023-04-04T17:12:57.403Z,9.60
2023-04-04T17:15:24.211Z,9.80
2023-04-04T17:17:51.533Z,9.80
2023-04-04T17:20:19.183Z,9.70
2023-04-04T17:22:47.449Z,9.70
2023-04-04T17:25:14.348Z,9.60
2023-04-04T17:27:41.721Z,9.60
2023-04-04T17:30:08.948Z,9.50
2023-04-04T17:32:36.152Z,9.40
2023-04-04T17:35:02.971Z,9.30
2023-04-04T17:37:31.030Z,9.30
2023-04-04T17:39:59.715Z,9.30
2023-04-04T17:42:26.449Z,9.30
2023-04-04T17:44:53.177Z,9.30
2023-04-04T17:47:20.269Z,9.40
2023-04-04T17:49:47.073Z,9.30
2023-04-04T17:52:19.125Z,9.30
2023-04-04T17:54:48.714Z,9.20
2023-04-04T17:57:15.697Z,9.10
2023-04-04T17:59:42.709Z,9.10
2023-04-04T18:02:09.601Z,9.00
2023-04-04T18:04:37.736Z,8.90
2023-04-04T18:07:06.307Z,8.90
2023-04-04T18:09:33.092Z,8.80
2023-04-04T18:12:00.146Z,8.80
2023-04-04T18:14:27.187Z,8.70
2023-04-04T18:16:54.228Z,8.70
2023-04-04T18:19:20.949Z,8.70
2023-04-04T18:21:49.911Z,8.70
2023-04-04T18:24:16.658Z,8.70
2023-04-04T18:26:45.069Z,8.70
2023-04-04T18:29:12.388Z,8.70
2023-04-04T18:31:39.248Z,8.70
2023-04-04T18:34:06.105Z,8.70
2023-04-04T18:36:32.873Z,8.60
2023-04-04T18:39:01.241Z,8.60
2023-04-04T18:41:28.043Z,8.60
2023-04-04T18:43:54.786Z,8.60
2023-04-04T18:46:21.644Z,8.50
2023-04-04T18:48:48.399Z,8.50
2023-04-04T18:51:15.696Z,8.50
2023-04-04T18:53:42.461Z,8.50
2023-04-04T18:56:09.258Z,8.50
2023-04-04T18:58:37.055Z,8.50
2023-04-04T19:01:04.369Z,8.40
2023-04-04T19:03:36.514Z,8.40
2023-04-04T19:06:04.905Z,8.40
2023-04-04T19:08:33.555Z,8.40
2023-04-04T19:11:00.572Z,8.30
2023-04-04T19:13:27.336Z,8.30
2023-04-04T19:15:54.231Z,8.20
2023-04-04T19:18:20.953Z,8.20
2023-04-04T19:20:47.674Z,8.20
2023-04-04T19:23:14.498Z,8.20
2023-04-04T19:25:41.454Z,8.10
2023-04-04T19:28:08.353Z,8.10
2023-04-04T19:30:42.895Z,8.10
2023-04-04T19:33:10.819Z,8.00
2023-04-04T19:35:48.614Z,8.00
2023-04-04T19:38:19.398Z,8.00
2023-04-04T19:40:50.283Z,8.00
2023-04-04T19:43:18.739Z,7.90
2023-04-04T19:45:52.456Z,7.90
2023-04-04T19:48:37.989Z,7.90
2023-04-04T19:51:09.286Z,7.90
2023-04-04T19:53:36.084Z,7.90
2023-04-04T19:56:12.833Z,7.90
2023-04-04T19:58:39.738Z,7.90
2023-04-04T20:01:07.192Z,7.90
2023-04-04T20:03:38.498Z,7.90
2023-04-04T20:06:08.279Z,7.90
2023-04-04T20:08:39.707Z,7.90
2023-04-04T20:11:07.088Z,7.80
2023-04-04T20:13:35.281Z,7.80
2023-04-04T20:16:03.954Z,7.90
2023-04-04T20:18:32.302Z,7.80
2023-04-04T20:21:03.182Z,7.90
2023-04-04T20:23:31.449Z,7.90
2023-04-04T20:26:04.238Z,7.80
2023-04-04T20:28:31.173Z,7.90
2023-04-04T20:31:00.873Z,7.80
2023-04-04T20:33:32.337Z,7.70
2023-04-04T20:36:05.916Z,7.70
2023-04-04T20:38:32.892Z,7.70
2023-04-04T20:41:00.110Z,7.60
2023-04-04T20:43:28.198Z,7.60
2023-04-04T20:45:55.971Z,7.60
2023-04-04T20:48:32.162Z,7.60
2023-04-04T20:50:58.921Z,7.60
2023-04-04T20:53:27.602Z,7.50
2023-04-04T20:55:54.718Z,7.50
2023-04-04T20:58:28.809Z,7.50
2023-04-04T21:00:59.747Z,7.40
2023-04-04T21:03:26.765Z,7.40
2023-04-04T21:06:01.095Z,7.40
2023-04-04T21:08:46.285Z,7.40
2023-04-04T21:11:14.049Z,7.30
2023-04-04T21:13:42.013Z,7.30
2023-04-04T21:16:12.423Z,7.40
2023-04-04T21:18:40.237Z,7.40
2023-04-04T21:21:10.238Z,7.50
2023-04-04T21:23:47.491Z,7.50
2023-04-04T21:26:19.699Z,7.60
2023-04-04T21:28:46.526Z,7.70
2023-04-04T21:31:14.655Z,7.80
2023-04-04T21:33:48.783Z,7.80
2023-04-04T21:36:27.966Z,7.80
2023-04-04T21:38:56.408Z,7.90
2023-04-04T21:41:23.855Z,8.00
2023-04-04T21:43:51.158Z,8.10
2023-04-04T21:46:18.088Z,8.10
2023-04-04T21:48:44.832Z,8.20
2023-04-04T21:51:11.632Z,8.30
2023-04-04T21:53:38.372Z,8.30
2023-04-04T21:56:05.272Z,8.30
2023-04-04T21:58:32.169Z,8.40
2023-04-04T22:00:58.915Z,8.40
2023-04-04T22:03:25.647Z,8.40
2023-04-04T22:05:52.435Z,8.50
2023-04-04T22:08:19.310Z,8.50
2023-04-04T22:10:46.359Z,8.50
2023-04-04T22:13:17.423Z,8.60
2023-04-04T22:15:47.473Z,8.60
2023-04-04T22:18:14.947Z,8.60
2023-04-04T22:20:42.987Z,8.60
2023-04-04T22:23:10.303Z,8.60
2023-04-04T22:25:37.107Z,8.60
2023-04-04T22:28:04.653Z,8.50
2023-04-04T22:30:31.937Z,8.50
2023-04-04T22:33:03.462Z,8.50
2023-04-04T22:35:31.011Z,8.50
2023-04-04T22:38:00.990Z,8.50
2023-04-04T22:40:31.373Z,8.50
2023-04-04T22:42:58.674Z,8.60
2023-04-04T22:45:26.806Z,8.50
2023-04-04T22:47:55.052Z,8.60
2023-04-04T22:50:26.727Z,8.50
2023-04-04T22:52:54.916Z,8.50
2023-04-04T22:55:23.453Z,8.40
2023-04-04T22:57:50.645Z,8.40
2023-04-04T23:00:17.834Z,8.40
2023-04-04T23:02:46.204Z,8.30
2023-04-04T23:05:14.393Z,8.30
2023-04-04T23:07:41.776Z,8.20
2023-04-04T23:10:12.950Z,8.20
2023-04-04T23:12:40.199Z,8.10
2023-04-04T23:15:08.216Z,8.20
2023-04-04T23:17:35.857Z,8.20
2023-04-04T23:20:03.384Z,8.10
2023-04-04T23:22:30.108Z,8.10
2023-04-04T23:24:56.894Z,8.10
2023-04-04T23:27:23.645Z,8.00
2023-04-04T23:29:50.703Z,8.00
2023-04-04T23:32:17.466Z,8.00
2023-04-04T23:34:44.209Z,7.90
2023-04-04T23:37:10.932Z,8.00
2023-04-04T23:39:37.778Z,8.00
2023-04-04T23:42:04.515Z,8.00
2023-04-04T23:44:31.249Z,8.00
2023-04-04T23:46:58.090Z,8.00
2023-04-04T23:49:24.832Z,8.00
2023-04-04T23:51:51.738Z,7.90
2023-04-04T23:54:18.516Z,7.90
2023-04-04T23:56:45.400Z,7.80
2023-04-04T23:59:12.250Z,7.80
